Flight Track Log - Related Links

Times and Time Zones

All times are in EDT time to prevent confusion due to time zone crossing. See the SWA285 flight status page for this flight to view local times or setup timezone preferences in your user account.

Time Position Orientation Groundspeed Altitude Reporting Facility
EDT Latitude Longitude Course Direction KTS MPH feet Rate Location/Type
Sat 01:37:25 AM 36.0761 -115.1683 270° West 161 185 3,700  Level Los Angeles Center
Sat 01:38:32 AM 36.0756 -115.2456 270° West 212 244 6,800 2,892 Climbing Los Angeles Center
Sat 01:39:44 AM 36.1322 -115.2950 325° Northwest 256 295 10,400 3,023 Climbing Los Angeles Center
Sat 01:40:45 AM 36.1856 -115.2350 42° Northeast 287 330 13,500 2,754 Climbing Los Angeles Center
Sat 01:41:46 AM 36.1981 -115.1147 83° East 345 397 16,000 2,754 Climbing Los Angeles Center
Sat 01:42:47 AM 36.1972 -114.9867 90° East 367 422 19,100 3,246 Climbing Los Angeles Center
Sat 01:43:48 AM 36.1997 -114.8172 89° East 402 463 22,600 3,098 Climbing Los Angeles Center
Sat 01:44:49 AM 36.1994 -114.6711 90° East 418 481 25,400 2,459 Climbing Los Angeles Center
Sat 01:45:50 AM 36.1972 -114.5183 91° East 435 501 27,600 2,066 Climbing Los Angeles Center
Sat 01:46:51 AM 36.2317 -114.3664 74° East 459 528 29,600 1,770 Climbing Los Angeles Center
Sat 01:47:52 AM 36.2858 -114.2169 66° East 472 543 31,200 1,475 Climbing Los Angeles Center
Sat 01:48:53 AM 36.3425 -114.0622 66° East 487 560 32,600 1,574 Climbing Los Angeles Center
Sat 01:49:54 AM 36.4000 -113.9017 66° East 504 580 34,400 1,770 Climbing Los Angeles Center
Sat 01:50:55 AM 36.4578 -113.7417 66° East 509 586 36,200 1,721 Climbing Los Angeles Center
Sat 01:51:56 AM 36.5200 -113.5667 66° East 508 585 37,900 1,328 Climbing Los Angeles Center
Sat 01:52:57 AM 36.5786 -113.4061 66° East 510 587 38,900 1,082 Climbing Los Angeles Center
Sat 01:53:58 AM 36.6350 -113.2431 67° East 514 592 40,100 1,033 Climbing Los Angeles Center
Sat 01:54:59 AM 36.6931 -113.0836 66° East 511 588 41,000 443 Climbing Los Angeles Center
Sat 01:56:00 AM 36.7486 -112.9236 67° East 507 583 41,000  Level Los Angeles Center
Sat 01:57:01 AM 36.8036 -112.7661 66° East 502 578 41,000  Level Los Angeles Center
Sat 01:58:02 AM 36.8594 -112.6067 66° East 504 580 41,000  Level Los Angeles Center
Sat 01:59:03 AM 36.9133 -112.4500 67° East 498 573 41,000  Level Los Angeles Center
Sat 02:00:04 AM 36.9775 -112.2619 67° East 494 568 41,000  Level Los Angeles Center
Sat 02:01:04 AM 37.0311 -112.1042 67° East 495 570 41,000  Level Los Angeles Center
Sat 02:02:05 AM 37.0850 -111.9469 67° East 494 568 41,000  Level Los Angeles Center
Sat 02:03:05 AM 37.1381 -111.7883 67° East 497 572 41,000  Level Denver Center
Sat 02:04:05 AM 37.1936 -111.6308 66° East 496 571 41,000  Level Denver Center
Sat 02:05:06 AM 37.2558 -111.4758 63° Northeast 496 571 41,000  Level Denver Center
Sat 02:06:07 AM 37.3186 -111.3211 63° Northeast 499 574 41,000  Level Denver Center
Sat 02:07:07 AM 37.3789 -111.1647 64° Northeast 499 574 41,000  Level Denver Center
Sat 02:08:08 AM 37.4392 -111.0078 64° Northeast 500 575 41,000  Level Denver Center
Sat 02:09:08 AM 37.5000 -110.8514 64° Northeast 499 574 41,000  Level Denver Center
Sat 02:10:09 AM 37.5606 -110.6944 64° Northeast 500 575 41,000  Level Denver Center
Sat 02:11:10 AM 37.6194 -110.5375 65° Northeast 498 573 41,000  Level Denver Center
Sat 02:12:10 AM 37.6864 -110.3622 64° Northeast 502 578 41,000  Level Denver Center
Sat 02:13:10 AM 37.7439 -110.2125 64° Northeast 496 571 41,000  Level Denver Center
Sat 02:14:11 AM 37.8014 -110.0611 64° Northeast 498 573 41,000  Level Denver Center
Sat 02:15:11 AM 37.8672 -109.8817 65° Northeast 502 578 41,000  Level Denver Center
Sat 02:16:12 AM 37.9247 -109.7294 64° Northeast 501 577 41,000  Level Denver Center
Sat 02:17:12 AM 37.9814 -109.5758 65° Northeast 501 577 41,000  Level Denver Center
Sat 02:18:13 AM 38.0475 -109.3964 65° Northeast 503 579 41,000  Level Denver Center
Sat 02:19:13 AM 38.0992 -109.2547 65° Northeast 500 575 41,000  Level Denver Center
Sat 02:20:14 AM 38.1636 -109.0736 66° East 504 580 41,000  Level Denver Center
Sat 02:21:15 AM 38.2203 -108.9222 64° Northeast 500 575 41,000 -99 Level Denver Center
Sat 02:22:15 AM 38.2750 -108.7700 65° Northeast 495 570 40,800 -694 Descending Denver Center
Sat 02:23:16 AM 38.3375 -108.5939 66° East 491 565 39,600 -1,091 Descending Denver Center
Sat 02:24:16 AM 38.3908 -108.4478 65° Northeast 479 551 38,600 -992 Descending Denver Center
Sat 02:25:17 AM 38.4422 -108.3025 66° East 473 544 37,600 -1,041 Descending Denver Center
Sat 02:26:17 AM 38.5000 -108.1400 66° East 452 520 36,500 -1,041 Descending Denver Center
Sat 02:27:18 AM 38.5486 -108.0019 66° East 447 514 35,500 -942 Descending Denver Center
Sat 02:28:18 AM 38.5978 -107.8600 66° East 453 521 34,600 -992 Descending Denver Center
Sat 02:29:19 AM 38.6525 -107.7025 66° East 439 505 33,500 -984 Descending Denver Center
Sat 02:30:20 AM 38.6997 -107.5681 66° East 433 498 32,600 -893 Descending Denver Center
Sat 02:31:20 AM 38.7461 -107.4319 66° East 433 498 31,700 -793 Descending Denver Center
Sat 02:32:21 AM 38.7992 -107.2783 66° East 425 489 31,000 -347 Descending Denver Center
Sat 02:33:21 AM 38.8453 -107.1433 66° East 431 496 31,000  Level Denver Center
Sat 02:34:22 AM 38.8906 -107.0089 67° East 431 496 31,000  Level Denver Center
Sat 02:35:23 AM 38.9442 -106.8494 67° East 436 502 31,000  Level Denver Center
Sat 02:36:23 AM 38.9897 -106.7147 66° East 432 497 31,000  Level Denver Center
Sat 02:37:24 AM 39.0358 -106.5786 66° East 434 499 31,000  Level Denver Center
Sat 02:38:24 AM 39.0803 -106.4442 67° East 430 495 31,000  Level Denver Center
Sat 02:39:25 AM 39.1319 -106.2872 67° East 427 491 31,000  Level Denver Center
Sat 02:40:25 AM 39.1764 -106.1506 67° East 429 494 31,000 -645 Level Denver Center
Sat 02:41:26 AM 39.2233 -106.0083 67° East 431 496 29,700 -2,016 Descending Denver Center
Sat 02:42:27 AM 39.2717 -105.8592 67° East 449 517 26,900 -2,529 Descending Denver Center
Sat 02:43:27 AM 39.3194 -105.7139 67° East 444 511 24,600 -2,182 Descending Denver Center
Sat 02:44:28 AM 39.3644 -105.5744 67° East 426 490 22,500 -1,736 Descending Denver Center
Sat 02:45:28 AM 39.4194 -105.4369 63° Northeast 398 458 21,100 -1,686 Descending Denver Center
Sat 02:46:29 AM 39.4683 -105.3214 61° Northeast 367 422 19,100 -2,826 Descending Denver Center
Sat 02:47:29 AM 39.5186 -105.2028 61° Northeast 375 432 15,400 -3,322 Descending Denver Center
Sat 02:48:30 AM 39.5711 -105.0800 61° Northeast 389 448 12,400 -2,213 Descending Denver Center
Sat 02:49:31 AM 39.6197 -104.9603 62° Northeast 379 436 10,900 -1,140 Descending Denver Center
Sat 02:50:31 AM 39.6603 -104.8625 62° Northeast 314 361 10,100 -1,190 Descending Denver Center
Sat 02:51:32 AM 39.6994 -104.7642 63° Northeast 290 334 8,500 -694 Descending Denver Center
Sat 02:52:32 AM 39.7283 -104.6925 62° Northeast 213 245 8,700 -645 Climbing Denver Center
Sat 02:53:33 AM 39.7450 -104.6486 64° Northeast 137 158 7,200 -1,190 Descending Denver Center
Sat 02:54:33 AM 39.7861 -104.6425 North 149 171 6,300 -843 Descending Denver Center
Sat 02:55:34 AM 39.8256 -104.6419 North 145 167 5,500 -496 Descending Denver Center
Sat 02:56:34 AM 39.8544 -104.6414 North 126 145 5,300 -200 Descending Denver Center
Sat 02:58:00 AM 39.8500 -104.6667 180° South  Level FlightAware Approximate
Sat 03:05:00 AM 39.8617 -104.6732 180° South  Level Estimated
Sat 03:06:00 AM 39.8617 -104.6732 180° South  Level Estimated

Login

Don't have an account? Register now (free) for customized features, flight alerts, and more!